sensor_id;sensor_type;location;lat;lon;timestamp;P1;durP1;ratioP1;P2;durP2;ratioP2
28605;SDS011;46498;49.968;7.754;2023-12-20T00:02:55;1.10;;;0.43;;
28605;SDS011;46498;49.968;7.754;2023-12-20T00:07:56;0.68;;;0.10;;
28605;SDS011;46498;49.968;7.754;2023-12-20T00:12:57;4.30;;;0.80;;
28605;SDS011;46498;49.968;7.754;2023-12-20T00:17:58;2.35;;;0.95;;
28605;SDS011;46498;49.968;7.754;2023-12-20T00:22:59;2.22;;;0.93;;
28605;SDS011;46498;49.968;7.754;2023-12-20T00:28:03;2.30;;;1.40;;
28605;SDS011;46498;49.968;7.754;2023-12-20T00:33:04;1.55;;;0.70;;
28605;SDS011;46498;49.968;7.754;2023-12-20T00:38:05;1.17;;;0.73;;
28605;SDS011;46498;49.968;7.754;2023-12-20T00:43:07;1.13;;;0.50;;
28605;SDS011;46498;49.968;7.754;2023-12-20T00:48:08;1.17;;;0.68;;
28605;SDS011;46498;49.968;7.754;2023-12-20T00:53:09;0.50;;;0.40;;
28605;SDS011;46498;49.968;7.754;2023-12-20T00:58:10;1.60;;;1.00;;
28605;SDS011;46498;49.968;7.754;2023-12-20T01:03:11;1.35;;;0.40;;
28605;SDS011;46498;49.968;7.754;2023-12-20T01:08:12;0.35;;;0.30;;
28605;SDS011;46498;49.968;7.754;2023-12-20T01:13:13;0.47;;;0.32;;
28605;SDS011;46498;49.968;7.754;2023-12-20T01:18:14;0.55;;;0.30;;
28605;SDS011;46498;49.968;7.754;2023-12-20T01:23:15;0.62;;;0.50;;
28605;SDS011;46498;49.968;7.754;2023-12-20T01:28:16;1.52;;;0.77;;
28605;SDS011;46498;49.968;7.754;2023-12-20T01:33:17;0.98;;;0.37;;
28605;SDS011;46498;49.968;7.754;2023-12-20T01:38:18;0.80;;;0.37;;
28605;SDS011;46498;49.968;7.754;2023-12-20T01:43:19;0.80;;;0.52;;
28605;SDS011;46498;49.968;7.754;2023-12-20T01:48:20;1.40;;;0.98;;
28605;SDS011;46498;49.968;7.754;2023-12-20T01:53:22;0.95;;;0.43;;
28605;SDS011;46498;49.968;7.754;2023-12-20T01:58:26;1.20;;;0.70;;
28605;SDS011;46498;49.968;7.754;2023-12-20T02:03:27;0.50;;;0.40;;
28605;SDS011;46498;49.968;7.754;2023-12-20T02:08:28;1.10;;;0.47;;
28605;SDS011;46498;49.968;7.754;2023-12-20T02:13:30;0.82;;;0.55;;
28605;SDS011;46498;49.968;7.754;2023-12-20T02:18:31;0.85;;;0.70;;
28605;SDS011;46498;49.968;7.754;2023-12-20T02:23:32;1.02;;;0.60;;
28605;SDS011;46498;49.968;7.754;2023-12-20T02:28:33;4.45;;;1.17;;
28605;SDS011;46498;49.968;7.754;2023-12-20T02:33:35;1.00;;;0.82;;
28605;SDS011;46498;49.968;7.754;2023-12-20T02:38:36;1.50;;;1.08;;
28605;SDS011;46498;49.968;7.754;2023-12-20T02:43:37;2.25;;;1.30;;
28605;SDS011;46498;49.968;7.754;2023-12-20T02:48:38;2.55;;;1.30;;
28605;SDS011;46498;49.968;7.754;2023-12-20T02:53:39;9.75;;;2.92;;
28605;SDS011;46498;49.968;7.754;2023-12-20T02:58:40;3.37;;;1.75;;
28605;SDS011;46498;49.968;7.754;2023-12-20T03:03:41;4.62;;;1.67;;
28605;SDS011;46498;49.968;7.754;2023-12-20T03:08:42;1.92;;;1.27;;
28605;SDS011;46498;49.968;7.754;2023-12-20T03:13:43;2.15;;;1.55;;
28605;SDS011;46498;49.968;7.754;2023-12-20T03:18:44;3.40;;;1.50;;
28605;SDS011;46498;49.968;7.754;2023-12-20T03:23:45;3.35;;;1.65;;
28605;SDS011;46498;49.968;7.754;2023-12-20T03:28:46;2.20;;;1.65;;
28605;SDS011;46498;49.968;7.754;2023-12-20T03:33:47;3.12;;;2.12;;
28605;SDS011;46498;49.968;7.754;2023-12-20T03:38:48;4.10;;;2.10;;
28605;SDS011;46498;49.968;7.754;2023-12-20T03:43:49;3.10;;;2.17;;
28605;SDS011;46498;49.968;7.754;2023-12-20T03:48:50;2.25;;;1.90;;
28605;SDS011;46498;49.968;7.754;2023-12-20T03:53:51;3.45;;;2.10;;
28605;SDS011;46498;49.968;7.754;2023-12-20T03:58:52;3.50;;;2.00;;
28605;SDS011;46498;49.968;7.754;2023-12-20T04:03:53;5.95;;;2.40;;
28605;SDS011;46498;49.968;7.754;2023-12-20T04:08:54;5.90;;;2.60;;
28605;SDS011;46498;49.968;7.754;2023-12-20T04:13:55;9.77;;;2.35;;
28605;SDS011;46498;49.968;7.754;2023-12-20T04:18:56;4.20;;;1.87;;
28605;SDS011;46498;49.968;7.754;2023-12-20T04:23:57;8.82;;;1.80;;
28605;SDS011;46498;49.968;7.754;2023-12-20T04:28:57;12.32;;;2.45;;
28605;SDS011;46498;49.968;7.754;2023-12-20T04:33:58;11.30;;;2.65;;
28605;SDS011;46498;49.968;7.754;2023-12-20T04:38:59;7.87;;;1.83;;
28605;SDS011;46498;49.968;7.754;2023-12-20T04:44:00;14.93;;;2.05;;
28605;SDS011;46498;49.968;7.754;2023-12-20T04:49:01;13.30;;;3.08;;
28605;SDS011;46498;49.968;7.754;2023-12-20T04:54:03;11.05;;;2.20;;
28605;SDS011;46498;49.968;7.754;2023-12-20T04:59:04;7.68;;;1.90;;
28605;SDS011;46498;49.968;7.754;2023-12-20T05:04:05;12.37;;;4.70;;
28605;SDS011;46498;49.968;7.754;2023-12-20T05:09:06;16.30;;;4.62;;
28605;SDS011;46498;49.968;7.754;2023-12-20T05:14:08;18.65;;;3.42;;
28605;SDS011;46498;49.968;7.754;2023-12-20T05:19:08;5.85;;;2.75;;
28605;SDS011;46498;49.968;7.754;2023-12-20T05:24:10;8.70;;;1.75;;
28605;SDS011;46498;49.968;7.754;2023-12-20T05:29:10;5.05;;;1.70;;
28605;SDS011;46498;49.968;7.754;2023-12-20T05:34:11;11.02;;;1.77;;
28605;SDS011;46498;49.968;7.754;2023-12-20T05:39:12;7.45;;;1.50;;
28605;SDS011;46498;49.968;7.754;2023-12-20T05:44:13;10.48;;;1.70;;
28605;SDS011;46498;49.968;7.754;2023-12-20T05:49:14;8.95;;;2.08;;
28605;SDS011;46498;49.968;7.754;2023-12-20T05:54:15;6.22;;;1.40;;
28605;SDS011;46498;49.968;7.754;2023-12-20T05:59:16;4.35;;;1.50;;
28605;SDS011;46498;49.968;7.754;2023-12-20T06:04:17;8.35;;;1.45;;
28605;SDS011;46498;49.968;7.754;2023-12-20T06:09:18;7.93;;;1.27;;
28605;SDS011;46498;49.968;7.754;2023-12-20T06:14:20;9.90;;;1.60;;
28605;SDS011;46498;49.968;7.754;2023-12-20T06:19:21;9.40;;;2.22;;
28605;SDS011;46498;49.968;7.754;2023-12-20T06:24:23;8.27;;;2.08;;
28605;SDS011;46498;49.968;7.754;2023-12-20T06:29:28;4.40;;;1.40;;
28605;SDS011;46498;49.968;7.754;2023-12-20T06:34:29;11.18;;;1.73;;
28605;SDS011;46498;49.968;7.754;2023-12-20T06:39:30;6.12;;;1.48;;
28605;SDS011;46498;49.968;7.754;2023-12-20T06:44:31;10.07;;;2.30;;
28605;SDS011;46498;49.968;7.754;2023-12-20T06:49:32;12.07;;;3.12;;
28605;SDS011;46498;49.968;7.754;2023-12-20T06:54:33;9.82;;;2.55;;
28605;SDS011;46498;49.968;7.754;2023-12-20T06:59:40;15.18;;;2.28;;
28605;SDS011;46498;49.968;7.754;2023-12-20T07:04:41;8.98;;;1.90;;
28605;SDS011;46498;49.968;7.754;2023-12-20T07:09:42;12.68;;;2.65;;
28605;SDS011;46498;49.968;7.754;2023-12-20T07:14:44;10.77;;;2.03;;
28605;SDS011;46498;49.968;7.754;2023-12-20T07:19:44;15.90;;;2.60;;
28605;SDS011;46498;49.968;7.754;2023-12-20T07:24:45;13.65;;;3.37;;
28605;SDS011;46498;49.968;7.754;2023-12-20T07:29:46;25.62;;;5.45;;
28605;SDS011;46498;49.968;7.754;2023-12-20T07:34:47;8.30;;;2.10;;
28605;SDS011;46498;49.968;7.754;2023-12-20T07:39:49;12.52;;;2.08;;
28605;SDS011;46498;49.968;7.754;2023-12-20T07:44:50;12.35;;;1.92;;
28605;SDS011;46498;49.968;7.754;2023-12-20T07:49:51;13.90;;;2.28;;
28605;SDS011;46498;49.968;7.754;2023-12-20T07:54:53;8.10;;;2.15;;
28605;SDS011;46498;49.968;7.754;2023-12-20T07:59:54;12.10;;;2.60;;
28605;SDS011;46498;49.968;7.754;2023-12-20T08:04:55;10.80;;;2.97;;
28605;SDS011;46498;49.968;7.754;2023-12-20T08:09:56;9.38;;;2.30;;
28605;SDS011;46498;49.968;7.754;2023-12-20T08:14:57;19.08;;;2.97;;
28605;SDS011;46498;49.968;7.754;2023-12-20T08:19:58;11.70;;;3.05;;
28605;SDS011;46498;49.968;7.754;2023-12-20T08:30:15;10.07;;;2.65;;
28605;SDS011;46498;49.968;7.754;2023-12-20T08:35:18;12.37;;;3.03;;
28605;SDS011;46498;49.968;7.754;2023-12-20T08:40:20;13.82;;;3.75;;
28605;SDS011;46498;49.968;7.754;2023-12-20T08:45:21;14.20;;;3.08;;
28605;SDS011;46498;49.968;7.754;2023-12-20T08:50:22;11.02;;;2.50;;
28605;SDS011;46498;49.968;7.754;2023-12-20T08:55:23;11.80;;;3.60;;
28605;SDS011;46498;49.968;7.754;2023-12-20T09:00:24;7.85;;;3.25;;
28605;SDS011;46498;49.968;7.754;2023-12-20T09:05:28;11.00;;;2.87;;
28605;SDS011;46498;49.968;7.754;2023-12-20T09:10:29;10.98;;;2.83;;
28605;SDS011;46498;49.968;7.754;2023-12-20T09:15:30;15.00;;;3.08;;
28605;SDS011;46498;49.968;7.754;2023-12-20T09:20:36;14.70;;;4.10;;
28605;SDS011;46498;49.968;7.754;2023-12-20T09:25:39;13.73;;;3.37;;
28605;SDS011;46498;49.968;7.754;2023-12-20T09:30:40;11.38;;;2.40;;
28605;SDS011;46498;49.968;7.754;2023-12-20T09:35:42;14.60;;;3.60;;
28605;SDS011;46498;49.968;7.754;2023-12-20T09:40:43;16.40;;;2.95;;
28605;SDS011;46498;49.968;7.754;2023-12-20T09:45:45;17.67;;;2.53;;
28605;SDS011;46498;49.968;7.754;2023-12-20T09:50:47;15.98;;;2.58;;
28605;SDS011;46498;49.968;7.754;2023-12-20T09:55:54;13.57;;;2.37;;
28605;SDS011;46498;49.968;7.754;2023-12-20T10:00:59;13.23;;;3.10;;
28605;SDS011;46498;49.968;7.754;2023-12-20T10:06:01;15.32;;;2.35;;
28605;SDS011;46498;49.968;7.754;2023-12-20T10:11:03;12.18;;;2.50;;
28605;SDS011;46498;49.968;7.754;2023-12-20T10:16:05;11.93;;;2.55;;
28605;SDS011;46498;49.968;7.754;2023-12-20T10:21:08;10.05;;;2.67;;
28605;SDS011;46498;49.968;7.754;2023-12-20T10:26:10;18.50;;;2.33;;
28605;SDS011;46498;49.968;7.754;2023-12-20T10:31:27;13.98;;;2.17;;
28605;SDS011;46498;49.968;7.754;2023-12-20T10:36:31;16.08;;;3.05;;
28605;SDS011;46498;49.968;7.754;2023-12-20T10:41:33;11.23;;;2.75;;
28605;SDS011;46498;49.968;7.754;2023-12-20T10:46:35;15.77;;;2.42;;
28605;SDS011;46498;49.968;7.754;2023-12-20T10:51:39;10.68;;;3.08;;
28605;SDS011;46498;49.968;7.754;2023-12-20T10:56:41;13.98;;;2.85;;
28605;SDS011;46498;49.968;7.754;2023-12-20T11:01:42;11.48;;;2.90;;
28605;SDS011;46498;49.968;7.754;2023-12-20T11:06:47;10.68;;;2.78;;
28605;SDS011;46498;49.968;7.754;2023-12-20T11:12:14;13.45;;;2.83;;
28605;SDS011;46498;49.968;7.754;2023-12-20T11:17:19;8.35;;;2.70;;
28605;SDS011;46498;49.968;7.754;2023-12-20T11:22:20;16.55;;;2.33;;
28605;SDS011;46498;49.968;7.754;2023-12-20T11:27:22;16.08;;;2.83;;
28605;SDS011;46498;49.968;7.754;2023-12-20T11:37:38;14.38;;;2.50;;
28605;SDS011;46498;49.968;7.754;2023-12-20T11:42:48;10.88;;;3.08;;
28605;SDS011;46498;49.968;7.754;2023-12-20T11:47:50;12.27;;;3.25;;
28605;SDS011;46498;49.968;7.754;2023-12-20T11:52:54;13.57;;;4.43;;
28605;SDS011;46498;49.968;7.754;2023-12-20T11:57:56;12.88;;;3.00;;
28605;SDS011;46498;49.968;7.754;2023-12-20T12:03:00;19.48;;;3.92;;
28605;SDS011;46498;49.968;7.754;2023-12-20T12:08:03;21.73;;;5.50;;
28605;SDS011;46498;49.968;7.754;2023-12-20T12:13:06;11.32;;;2.30;;
28605;SDS011;46498;49.968;7.754;2023-12-20T12:18:08;12.40;;;3.03;;
28605;SDS011;46498;49.968;7.754;2023-12-20T12:23:09;12.77;;;3.80;;
28605;SDS011;46498;49.968;7.754;2023-12-20T12:28:10;11.90;;;2.90;;
28605;SDS011;46498;49.968;7.754;2023-12-20T12:33:12;12.65;;;3.30;;
28605;SDS011;46498;49.968;7.754;2023-12-20T12:38:13;17.12;;;2.50;;
28605;SDS011;46498;49.968;7.754;2023-12-20T12:43:16;9.40;;;2.47;;
28605;SDS011;46498;49.968;7.754;2023-12-20T12:48:17;12.85;;;3.15;;
28605;SDS011;46498;49.968;7.754;2023-12-20T12:53:18;9.48;;;2.33;;
28605;SDS011;46498;49.968;7.754;2023-12-20T12:58:19;10.10;;;2.22;;
28605;SDS011;46498;49.968;7.754;2023-12-20T13:03:20;10.13;;;2.50;;
28605;SDS011;46498;49.968;7.754;2023-12-20T13:08:21;14.07;;;2.58;;
28605;SDS011;46498;49.968;7.754;2023-12-20T13:13:22;9.82;;;2.00;;
28605;SDS011;46498;49.968;7.754;2023-12-20T13:18:23;13.48;;;2.05;;
28605;SDS011;46498;49.968;7.754;2023-12-20T13:23:24;9.52;;;1.77;;
28605;SDS011;46498;49.968;7.754;2023-12-20T13:28:25;9.80;;;1.70;;
28605;SDS011;46498;49.968;7.754;2023-12-20T13:33:26;7.57;;;1.77;;
28605;SDS011;46498;49.968;7.754;2023-12-20T13:38:27;8.00;;;1.40;;
28605;SDS011;46498;49.968;7.754;2023-12-20T13:43:28;7.05;;;1.77;;
28605;SDS011;46498;49.968;7.754;2023-12-20T13:48:29;7.25;;;1.33;;
28605;SDS011;46498;49.968;7.754;2023-12-20T13:53:30;4.65;;;1.27;;
28605;SDS011;46498;49.968;7.754;2023-12-20T13:58:31;8.90;;;1.80;;
28605;SDS011;46498;49.968;7.754;2023-12-20T14:03:32;10.30;;;2.15;;
28605;SDS011;46498;49.968;7.754;2023-12-20T14:08:33;9.23;;;1.55;;
28605;SDS011;46498;49.968;7.754;2023-12-20T14:13:34;5.22;;;1.35;;
28605;SDS011;46498;49.968;7.754;2023-12-20T14:18:35;9.68;;;1.35;;
28605;SDS011;46498;49.968;7.754;2023-12-20T14:23:36;8.25;;;2.10;;
28605;SDS011;46498;49.968;7.754;2023-12-20T14:28:37;8.95;;;1.60;;
28605;SDS011;46498;49.968;7.754;2023-12-20T14:33:38;7.62;;;1.85;;
28605;SDS011;46498;49.968;7.754;2023-12-20T14:38:40;9.10;;;1.55;;
28605;SDS011;46498;49.968;7.754;2023-12-20T14:43:41;10.30;;;1.62;;
28605;SDS011;46498;49.968;7.754;2023-12-20T14:48:42;13.82;;;2.03;;
28605;SDS011;46498;49.968;7.754;2023-12-20T14:53:43;7.57;;;1.37;;
28605;SDS011;46498;49.968;7.754;2023-12-20T14:58:44;10.55;;;2.03;;
28605;SDS011;46498;49.968;7.754;2023-12-20T15:03:45;6.07;;;1.80;;
28605;SDS011;46498;49.968;7.754;2023-12-20T15:08:46;8.60;;;2.45;;
28605;SDS011;46498;49.968;7.754;2023-12-20T15:13:47;8.57;;;1.75;;
28605;SDS011;46498;49.968;7.754;2023-12-20T15:18:55;9.23;;;1.58;;
28605;SDS011;46498;49.968;7.754;2023-12-20T15:23:56;7.72;;;2.37;;
28605;SDS011;46498;49.968;7.754;2023-12-20T15:29:06;7.97;;;2.58;;
28605;SDS011;46498;49.968;7.754;2023-12-20T15:34:07;14.30;;;1.95;;
28605;SDS011;46498;49.968;7.754;2023-12-20T15:39:08;12.75;;;2.75;;
28605;SDS011;46498;49.968;7.754;2023-12-20T15:44:09;13.32;;;3.20;;
28605;SDS011;46498;49.968;7.754;2023-12-20T15:49:11;12.45;;;3.85;;
28605;SDS011;46498;49.968;7.754;2023-12-20T15:54:12;9.65;;;2.08;;
28605;SDS011;46498;49.968;7.754;2023-12-20T15:59:13;9.02;;;2.05;;
28605;SDS011;46498;49.968;7.754;2023-12-20T16:04:14;7.60;;;2.28;;
28605;SDS011;46498;49.968;7.754;2023-12-20T16:09:15;7.50;;;1.92;;
28605;SDS011;46498;49.968;7.754;2023-12-20T16:14:16;9.68;;;2.00;;
28605;SDS011;46498;49.968;7.754;2023-12-20T16:19:20;7.32;;;1.80;;
28605;SDS011;46498;49.968;7.754;2023-12-20T16:24:21;8.05;;;1.65;;
28605;SDS011;46498;49.968;7.754;2023-12-20T16:29:22;7.00;;;1.80;;
28605;SDS011;46498;49.968;7.754;2023-12-20T16:34:23;9.15;;;1.50;;
28605;SDS011;46498;49.968;7.754;2023-12-20T16:39:24;12.37;;;2.22;;
28605;SDS011;46498;49.968;7.754;2023-12-20T16:44:25;11.48;;;1.77;;
28605;SDS011;46498;49.968;7.754;2023-12-20T16:49:26;10.35;;;2.40;;
28605;SDS011;46498;49.968;7.754;2023-12-20T16:54:27;9.50;;;1.92;;
28605;SDS011;46498;49.968;7.754;2023-12-20T17:04:32;6.47;;;2.08;;
28605;SDS011;46498;49.968;7.754;2023-12-20T17:09:34;10.27;;;1.85;;
28605;SDS011;46498;49.968;7.754;2023-12-20T17:14:34;10.65;;;1.37;;
28605;SDS011;46498;49.968;7.754;2023-12-20T17:19:35;5.05;;;1.27;;
28605;SDS011;46498;49.968;7.754;2023-12-20T17:24:36;13.15;;;1.90;;
28605;SDS011;46498;49.968;7.754;2023-12-20T17:29:37;10.68;;;2.30;;
28605;SDS011;46498;49.968;7.754;2023-12-20T17:34:38;8.60;;;3.12;;
28605;SDS011;46498;49.968;7.754;2023-12-20T17:39:39;7.07;;;1.73;;
28605;SDS011;46498;49.968;7.754;2023-12-20T17:44:40;7.57;;;1.92;;
28605;SDS011;46498;49.968;7.754;2023-12-20T17:49:41;7.78;;;1.92;;
28605;SDS011;46498;49.968;7.754;2023-12-20T17:54:42;7.07;;;1.55;;
28605;SDS011;46498;49.968;7.754;2023-12-20T17:59:43;4.72;;;1.42;;
28605;SDS011;46498;49.968;7.754;2023-12-20T18:04:44;6.80;;;1.58;;
28605;SDS011;46498;49.968;7.754;2023-12-20T18:09:45;8.20;;;1.90;;
28605;SDS011;46498;49.968;7.754;2023-12-20T18:14:46;10.10;;;1.65;;
28605;SDS011;46498;49.968;7.754;2023-12-20T18:19:49;7.85;;;1.40;;
28605;SDS011;46498;49.968;7.754;2023-12-20T18:24:50;6.03;;;1.80;;
28605;SDS011;46498;49.968;7.754;2023-12-20T18:29:52;9.45;;;2.00;;
28605;SDS011;46498;49.968;7.754;2023-12-20T18:35:06;8.90;;;1.75;;
28605;SDS011;46498;49.968;7.754;2023-12-20T18:40:08;7.35;;;1.52;;
28605;SDS011;46498;49.968;7.754;2023-12-20T18:45:11;6.18;;;1.73;;
28605;SDS011;46498;49.968;7.754;2023-12-20T18:50:12;10.93;;;1.87;;
28605;SDS011;46498;49.968;7.754;2023-12-20T18:55:13;11.38;;;2.00;;
28605;SDS011;46498;49.968;7.754;2023-12-20T19:00:14;8.40;;;1.98;;
28605;SDS011;46498;49.968;7.754;2023-12-20T19:05:15;6.87;;;2.62;;
28605;SDS011;46498;49.968;7.754;2023-12-20T19:10:20;5.75;;;1.92;;
28605;SDS011;46498;49.968;7.754;2023-12-20T19:15:23;9.18;;;1.92;;
28605;SDS011;46498;49.968;7.754;2023-12-20T19:20:24;5.03;;;1.77;;
28605;SDS011;46498;49.968;7.754;2023-12-20T19:25:25;7.95;;;1.60;;
28605;SDS011;46498;49.968;7.754;2023-12-20T19:30:27;5.60;;;1.40;;
28605;SDS011;46498;49.968;7.754;2023-12-20T19:35:27;9.30;;;1.65;;
28605;SDS011;46498;49.968;7.754;2023-12-20T19:40:30;9.50;;;2.30;;
28605;SDS011;46498;49.968;7.754;2023-12-20T19:45:30;4.10;;;1.73;;
28605;SDS011;46498;49.968;7.754;2023-12-20T19:50:31;6.40;;;1.85;;
28605;SDS011;46498;49.968;7.754;2023-12-20T19:55:33;9.63;;;1.90;;
28605;SDS011;46498;49.968;7.754;2023-12-20T20:00:35;5.80;;;1.80;;
28605;SDS011;46498;49.968;7.754;2023-12-20T20:05:50;5.65;;;1.62;;
28605;SDS011;46498;49.968;7.754;2023-12-20T20:10:52;9.75;;;2.03;;
28605;SDS011;46498;49.968;7.754;2023-12-20T20:15:53;8.60;;;3.20;;
28605;SDS011;46498;49.968;7.754;2023-12-20T20:20:54;8.10;;;3.20;;
28605;SDS011;46498;49.968;7.754;2023-12-20T20:25:55;7.25;;;2.05;;
28605;SDS011;46498;49.968;7.754;2023-12-20T20:30:56;8.10;;;2.87;;
28605;SDS011;46498;49.968;7.754;2023-12-20T20:35:58;4.75;;;1.55;;
28605;SDS011;46498;49.968;7.754;2023-12-20T20:40:59;3.92;;;1.40;;
28605;SDS011;46498;49.968;7.754;2023-12-20T20:46:00;6.53;;;1.33;;
28605;SDS011;46498;49.968;7.754;2023-12-20T20:51:05;9.38;;;2.20;;
28605;SDS011;46498;49.968;7.754;2023-12-20T20:56:06;2.45;;;1.30;;
28605;SDS011;46498;49.968;7.754;2023-12-20T21:01:07;14.45;;;1.83;;
28605;SDS011;46498;49.968;7.754;2023-12-20T21:06:09;8.07;;;2.45;;
28605;SDS011;46498;49.968;7.754;2023-12-20T21:11:11;8.20;;;1.63;;
28605;SDS011;46498;49.968;7.754;2023-12-20T21:16:14;2.65;;;1.23;;
28605;SDS011;46498;49.968;7.754;2023-12-20T21:21:15;2.58;;;1.20;;
28605;SDS011;46498;49.968;7.754;2023-12-20T21:26:16;4.93;;;1.35;;
28605;SDS011;46498;49.968;7.754;2023-12-20T21:31:17;3.45;;;1.27;;
28605;SDS011;46498;49.968;7.754;2023-12-20T21:36:18;2.60;;;1.30;;
28605;SDS011;46498;49.968;7.754;2023-12-20T21:41:19;3.08;;;1.02;;
28605;SDS011;46498;49.968;7.754;2023-12-20T21:46:24;3.15;;;1.00;;
28605;SDS011;46498;49.968;7.754;2023-12-20T21:51:26;4.13;;;1.23;;
28605;SDS011;46498;49.968;7.754;2023-12-20T21:56:27;3.15;;;0.95;;
28605;SDS011;46498;49.968;7.754;2023-12-20T22:01:28;1.77;;;0.80;;
28605;SDS011;46498;49.968;7.754;2023-12-20T22:06:29;4.70;;;0.70;;
28605;SDS011;46498;49.968;7.754;2023-12-20T22:11:30;2.85;;;0.77;;
28605;SDS011;46498;49.968;7.754;2023-12-20T22:16:31;2.75;;;1.10;;
28605;SDS011;46498;49.968;7.754;2023-12-20T22:21:32;3.17;;;0.90;;
28605;SDS011;46498;49.968;7.754;2023-12-20T22:26:33;1.15;;;0.50;;
28605;SDS011;46498;49.968;7.754;2023-12-20T22:31:34;2.53;;;0.50;;
28605;SDS011;46498;49.968;7.754;2023-12-20T22:36:35;1.17;;;0.60;;
28605;SDS011;46498;49.968;7.754;2023-12-20T22:41:36;1.37;;;0.70;;
28605;SDS011;46498;49.968;7.754;2023-12-20T22:46:39;1.42;;;0.40;;
28605;SDS011;46498;49.968;7.754;2023-12-20T22:51:41;1.92;;;0.90;;
28605;SDS011;46498;49.968;7.754;2023-12-20T22:56:42;2.78;;;1.00;;
28605;SDS011;46498;49.968;7.754;2023-12-20T23:01:44;2.00;;;0.70;;
28605;SDS011;46498;49.968;7.754;2023-12-20T23:06:45;3.22;;;0.62;;
28605;SDS011;46498;49.968;7.754;2023-12-20T23:11:46;2.00;;;0.70;;
28605;SDS011;46498;49.968;7.754;2023-12-20T23:16:51;7.72;;;1.98;;
28605;SDS011;46498;49.968;7.754;2023-12-20T23:21:52;1.73;;;0.47;;
28605;SDS011;46498;49.968;7.754;2023-12-20T23:26:53;2.55;;;0.75;;
28605;SDS011;46498;49.968;7.754;2023-12-20T23:31:54;1.23;;;0.52;;
28605;SDS011;46498;49.968;7.754;2023-12-20T23:36:55;1.37;;;0.50;;
28605;SDS011;46498;49.968;7.754;2023-12-20T23:41:56;0.93;;;0.40;;
28605;SDS011;46498;49.968;7.754;2023-12-20T23:46:57;0.82;;;0.30;;
28605;SDS011;46498;49.968;7.754;2023-12-20T23:51:58;2.45;;;0.55;;
28605;SDS011;46498;49.968;7.754;2023-12-20T23:56:59;1.60;;;0.32;;
